createdAt,value
2019-05-13T00:01:54.055Z,7.07
2019-05-13T00:04:24.439Z,7.12
2019-05-13T00:06:57.717Z,7.14
2019-05-13T00:09:28.386Z,7.14
2019-05-13T00:11:58.781Z,7.08
2019-05-13T00:14:29.327Z,7.16
2019-05-13T00:16:59.503Z,7.19
2019-05-13T00:19:29.336Z,7.15
2019-05-13T00:21:59.507Z,7.18
2019-05-13T00:24:29.735Z,7.23
2019-05-13T00:27:07.678Z,7.23
2019-05-13T00:29:38.095Z,7.37
2019-05-13T00:32:07.962Z,7.37
2019-05-13T00:34:37.610Z,7.19
2019-05-13T00:37:11.575Z,7.02
2019-05-13T00:39:39.928Z,7.02
2019-05-13T00:42:10.774Z,6.98
2019-05-13T00:44:41.018Z,6.94
2019-05-13T00:47:13.135Z,6.97
2019-05-13T00:49:43.725Z,7.00
2019-05-13T00:52:14.312Z,7.14
2019-05-13T00:54:44.692Z,7.08
2019-05-13T00:57:14.422Z,7.08
2019-05-13T00:59:44.439Z,7.14
2019-05-13T01:02:16.877Z,7.14
2019-05-13T01:04:48.087Z,7.12
2019-05-13T01:07:25.851Z,7.12
2019-05-13T01:09:50.076Z,7.13
2019-05-13T01:12:20.599Z,7.11
2019-05-13T01:14:50.755Z,7.11
2019-05-13T01:17:20.486Z,7.06
2019-05-13T01:19:57.322Z,7.06
2019-05-13T01:22:27.511Z,7.03
2019-05-13T01:24:57.653Z,6.95
2019-05-13T01:27:27.536Z,6.94
2019-05-13T01:29:57.045Z,6.87
2019-05-13T01:32:27.599Z,6.83
2019-05-13T01:34:58.655Z,6.81
2019-05-13T01:37:39.941Z,6.81
2019-05-13T01:40:00.578Z,6.82
2019-05-13T01:42:30.646Z,6.81
2019-05-13T01:45:00.577Z,6.82
2019-05-13T01:47:34.541Z,6.79
2019-05-13T01:50:06.775Z,6.80
2019-05-13T01:52:36.776Z,6.88
2019-05-13T01:55:08.190Z,6.82
2019-05-13T01:57:39.812Z,6.71
2019-05-13T02:00:10.360Z,6.63
2019-05-13T02:02:40.589Z,6.65
2019-05-13T02:05:10.956Z,6.65
2019-05-13T02:07:54.509Z,6.65
2019-05-13T02:10:14.599Z,6.68
2019-05-13T02:12:44.969Z,6.68
2019-05-13T02:15:19.615Z,6.60
2019-05-13T02:17:49.487Z,6.60
2019-05-13T02:20:19.546Z,6.48
2019-05-13T02:22:49.327Z,6.52
2019-05-13T02:25:20.238Z,6.55
2019-05-13T02:27:50.682Z,6.51
2019-05-13T02:30:20.603Z,6.47
2019-05-13T02:32:53.131Z,6.47
2019-05-13T02:35:23.239Z,6.40
2019-05-13T02:37:53.379Z,6.36
2019-05-13T02:40:23.442Z,6.35
2019-05-13T02:42:54.010Z,6.35
2019-05-13T02:45:23.746Z,6.37
2019-05-13T02:47:53.812Z,6.35
2019-05-13T02:50:23.730Z,6.33
2019-05-13T02:52:54.702Z,6.35
2019-05-13T02:55:25.036Z,6.33
2019-05-13T02:57:57.431Z,6.36
2019-05-13T03:00:27.476Z,6.36
2019-05-13T03:02:57.407Z,6.38
2019-05-13T03:05:27.223Z,6.38
2019-05-13T03:07:57.135Z,6.34
2019-05-13T03:10:28.287Z,6.33
2019-05-13T03:12:58.658Z,6.27
2019-05-13T03:15:32.774Z,6.19
2019-05-13T03:18:06.528Z,6.15
2019-05-13T03:20:38.481Z,6.01
2019-05-13T03:23:08.728Z,6.01
2019-05-13T03:25:39.084Z,6.04
2019-05-13T03:28:13.508Z,6.03
2019-05-13T03:30:45.886Z,6.03
2019-05-13T03:33:19.460Z,6.01
2019-05-13T03:35:47.586Z,6.02
2019-05-13T03:38:17.837Z,6.06
2019-05-13T03:40:52.453Z,6.09
2019-05-13T03:43:23.174Z,6.07
2019-05-13T03:45:55.188Z,6.07
2019-05-13T03:48:25.804Z,6.06
2019-05-13T03:50:56.613Z,6.08
2019-05-13T03:53:26.482Z,5.99
2019-05-13T03:55:58.008Z,6.01
2019-05-13T03:58:28.246Z,6.03
2019-05-13T04:00:58.046Z,6.01
2019-05-13T04:03:28.175Z,5.96
2019-05-13T04:05:58.542Z,5.88
2019-05-13T04:08:28.407Z,5.82
2019-05-13T04:11:02.905Z,5.82
2019-05-13T04:13:33.409Z,5.80
2019-05-13T04:16:04.523Z,5.77
2019-05-13T04:18:34.783Z,5.78
2019-05-13T04:21:05.025Z,5.83
2019-05-13T04:23:34.951Z,5.93
2019-05-13T04:26:05.691Z,6.04
2019-05-13T04:28:37.480Z,5.94
2019-05-13T04:31:07.657Z,6.04
2019-05-13T04:33:42.624Z,6.34
2019-05-13T04:36:14.170Z,6.34
2019-05-13T04:38:45.039Z,6.45
2019-05-13T04:41:15.052Z,6.43
2019-05-13T04:43:45.438Z,6.61
2019-05-13T04:46:14.928Z,6.76
2019-05-13T04:48:44.888Z,6.87
2019-05-13T04:51:15.487Z,7.06
2019-05-13T04:53:45.099Z,7.06
2019-05-13T04:56:16.334Z,7.14
2019-05-13T04:58:46.400Z,7.21
2019-05-13T05:01:48.862Z,7.32
2019-05-13T05:04:34.996Z,7.32
2019-05-13T05:07:22.279Z,7.43
2019-05-13T05:10:30.494Z,7.43
2019-05-13T05:13:23.575Z,7.43
2019-05-13T05:16:32.604Z,7.46
2019-05-13T05:19:32.036Z,6.77
2019-05-13T05:22:24.073Z,6.77
2019-05-13T05:25:21.949Z,7.60
2019-05-13T05:28:37.393Z,7.69
2019-05-13T05:31:35.176Z,7.59
2019-05-13T05:34:34.507Z,7.63
2019-05-13T05:37:27.117Z,7.66
2019-05-13T05:39:58.536Z,7.71
2019-05-13T05:42:32.316Z,7.75
2019-05-13T05:45:06.047Z,7.75
2019-05-13T05:47:38.331Z,7.89
2019-05-13T05:50:08.675Z,8.05
2019-05-13T05:52:42.336Z,8.07
2019-05-13T05:55:12.841Z,8.05
2019-05-13T05:57:46.656Z,8.04
2019-05-13T06:00:18.682Z,8.04
2019-05-13T06:02:53.223Z,7.98
2019-05-13T06:05:24.668Z,7.95
2019-05-13T06:07:55.347Z,7.91
2019-05-13T06:10:25.419Z,7.94
2019-05-13T06:12:56.217Z,7.80
2019-05-13T06:15:26.553Z,8.07
2019-05-13T06:17:56.695Z,8.14
2019-05-13T06:20:28.347Z,8.10
2019-05-13T06:22:58.525Z,8.07
2019-05-13T06:25:28.574Z,8.11
2019-05-13T06:27:58.668Z,8.16
2019-05-13T06:30:29.119Z,8.23
2019-05-13T06:33:01.480Z,8.23
2019-05-13T06:35:32.285Z,8.19
2019-05-13T06:38:03.186Z,8.19
2019-05-13T06:40:33.459Z,8.44
2019-05-13T06:43:03.467Z,8.44
2019-05-13T06:45:33.970Z,8.61
2019-05-13T06:48:04.116Z,8.67
2019-05-13T06:50:35.631Z,8.74
2019-05-13T06:53:08.387Z,8.94
2019-05-13T06:55:38.175Z,8.94
2019-05-13T06:58:08.269Z,9.07
2019-05-13T07:00:38.530Z,9.25
2019-05-13T07:03:08.485Z,9.25
2019-05-13T07:05:42.372Z,9.24
2019-05-13T07:08:12.722Z,9.24
2019-05-13T07:10:42.429Z,9.42
2019-05-13T07:13:12.413Z,9.42
2019-05-13T07:15:42.506Z,9.61
2019-05-13T07:18:12.264Z,9.69
2019-05-13T07:20:42.874Z,9.77
2019-05-13T07:23:14.311Z,9.85
2019-05-13T07:25:44.495Z,9.90
2019-05-13T07:28:14.387Z,9.99
2019-05-13T07:30:46.465Z,10.03
2019-05-13T07:33:17.206Z,10.09
2019-05-13T07:35:47.525Z,10.10
2019-05-13T07:38:18.404Z,10.23
2019-05-13T07:40:52.197Z,10.37
2019-05-13T07:43:22.054Z,10.51
2019-05-13T07:45:51.845Z,10.78
2019-05-13T07:48:27.637Z,11.52
2019-05-13T07:51:00.196Z,12.03
2019-05-13T07:53:27.723Z,12.57
2019-05-13T07:55:58.276Z,12.08
2019-05-13T07:58:28.403Z,12.23
2019-05-13T08:00:59.068Z,12.86
2019-05-13T08:03:31.703Z,12.79
2019-05-13T08:06:02.098Z,12.46
2019-05-13T08:08:32.472Z,13.70
2019-05-13T08:11:03.716Z,14.34
2019-05-13T08:13:33.515Z,14.04
2019-05-13T08:16:04.128Z,13.24
2019-05-13T08:18:34.319Z,12.89
2019-05-13T08:21:05.092Z,12.86
2019-05-13T08:23:35.851Z,12.64
2019-05-13T08:26:06.089Z,12.71
2019-05-13T08:28:56.532Z,12.90
2019-05-13T08:31:12.031Z,12.99
2019-05-13T08:33:42.537Z,13.16
2019-05-13T08:36:13.535Z,13.21
2019-05-13T08:38:43.838Z,13.28
2019-05-13T08:41:18.891Z,13.30
2019-05-13T08:43:46.512Z,13.45
2019-05-13T08:46:17.720Z,13.62
2019-05-13T08:48:47.612Z,13.56
2019-05-13T08:51:17.567Z,13.83
2019-05-13T08:53:47.453Z,13.91
2019-05-13T08:56:17.974Z,13.87
2019-05-13T08:58:48.695Z,13.93
2019-05-13T09:01:18.896Z,14.07
2019-05-13T09:03:56.733Z,14.20
2019-05-13T09:06:26.606Z,14.18
2019-05-13T09:08:56.925Z,14.05
2019-05-13T09:11:27.587Z,13.69
2019-05-13T09:13:58.434Z,13.64
2019-05-13T09:16:28.700Z,13.89
2019-05-13T09:18:58.922Z,14.10
2019-05-13T09:21:31.645Z,14.27
2019-05-13T09:24:02.237Z,14.09
2019-05-13T09:26:33.986Z,14.27
2019-05-13T09:29:04.164Z,14.55
2019-05-13T09:31:34.787Z,14.86
2019-05-13T09:34:05.103Z,15.01
2019-05-13T09:36:35.520Z,14.81
2019-05-13T09:39:06.862Z,14.29
2019-05-13T09:41:41.118Z,13.95
2019-05-13T09:44:12.134Z,13.73
2019-05-13T09:46:42.643Z,13.75
2019-05-13T09:49:19.728Z,13.13
2019-05-13T09:51:44.553Z,13.59
2019-05-13T09:54:15.510Z,13.53
2019-05-13T09:56:46.423Z,13.52
2019-05-13T09:59:17.172Z,13.48
2019-05-13T10:01:47.325Z,13.38
2019-05-13T10:04:18.141Z,13.31
2019-05-13T10:06:48.227Z,13.24
2019-05-13T10:09:18.648Z,13.30
2019-05-13T10:11:51.757Z,13.33
2019-05-13T10:14:22.979Z,13.17
2019-05-13T10:16:52.973Z,13.26
2019-05-13T10:19:25.384Z,13.18
2019-05-13T10:21:58.172Z,13.29
2019-05-13T10:24:28.626Z,13.35
2019-05-13T10:26:59.109Z,13.41
2019-05-13T10:29:31.603Z,13.32
2019-05-13T10:32:06.427Z,13.40
2019-05-13T10:34:37.458Z,13.46
2019-05-13T10:37:07.788Z,13.53
2019-05-13T10:39:38.313Z,13.51
2019-05-13T10:42:08.307Z,13.64
2019-05-13T10:44:39.082Z,13.86
2019-05-13T10:47:12.025Z,13.92
2019-05-13T10:49:42.398Z,13.76
2019-05-13T10:52:14.214Z,13.79
2019-05-13T10:54:44.537Z,13.63
2019-05-13T10:57:14.631Z,13.62
2019-05-13T10:59:44.743Z,13.50
2019-05-13T11:02:16.020Z,13.52
2019-05-13T11:04:46.029Z,13.56
2019-05-13T11:07:18.940Z,13.44
2019-05-13T11:09:52.785Z,13.80
2019-05-13T11:12:28.048Z,13.58
2019-05-13T11:14:55.463Z,13.59
2019-05-13T11:17:30.914Z,13.55
2019-05-13T11:19:58.157Z,13.62
2019-05-13T11:22:28.319Z,13.77
2019-05-13T11:24:57.980Z,13.74
2019-05-13T11:27:28.247Z,13.90
2019-05-13T11:29:58.532Z,13.94
2019-05-13T11:32:31.549Z,13.91
2019-05-13T11:35:01.865Z,13.90
2019-05-13T11:37:32.191Z,13.88
2019-05-13T11:40:03.022Z,14.00
2019-05-13T11:42:33.052Z,13.87
2019-05-13T11:45:03.668Z,13.95
2019-05-13T11:47:35.313Z,14.05
2019-05-13T11:50:07.845Z,13.78
2019-05-13T11:52:38.158Z,13.94
2019-05-13T11:55:09.239Z,14.14
2019-05-13T11:57:39.459Z,14.45
2019-05-13T12:00:13.404Z,14.57
2019-05-13T12:02:49.853Z,14.32
2019-05-13T12:05:15.742Z,14.57
2019-05-13T12:07:47.712Z,14.75
2019-05-13T12:10:22.614Z,14.70
2019-05-13T12:12:51.632Z,14.62
2019-05-13T12:15:38.121Z,14.80
2019-05-13T12:17:53.990Z,14.76
2019-05-13T12:20:23.870Z,14.80
2019-05-13T12:22:54.163Z,14.82
2019-05-13T12:25:24.121Z,14.71
2019-05-13T12:27:54.301Z,14.53
2019-05-13T12:30:24.402Z,14.45
2019-05-13T12:32:55.336Z,14.06
2019-05-13T12:35:32.828Z,14.11
2019-05-13T12:38:02.732Z,14.27
2019-05-13T12:40:33.734Z,14.18
2019-05-13T12:43:12.623Z,14.05
2019-05-13T12:45:43.230Z,14.02
2019-05-13T12:48:14.465Z,14.10
2019-05-13T12:50:44.177Z,13.97
2019-05-13T12:53:14.146Z,13.95
2019-05-13T12:55:51.835Z,13.81
2019-05-13T12:58:15.902Z,13.80
2019-05-13T13:00:46.733Z,13.66
2019-05-13T13:03:17.338Z,13.99
2019-05-13T13:05:48.078Z,14.21
2019-05-13T13:08:38.590Z,14.55
2019-05-13T13:10:54.034Z,14.79
2019-05-13T13:13:52.605Z,14.55
2019-05-13T13:15:56.841Z,14.67
2019-05-13T13:18:26.824Z,14.93
2019-05-13T13:21:01.346Z,14.49
2019-05-13T13:23:28.269Z,14.41
2019-05-13T13:26:03.064Z,14.51
2019-05-13T13:28:34.164Z,14.62
2019-05-13T13:31:04.513Z,14.78
2019-05-13T13:33:36.102Z,14.94
2019-05-13T13:36:06.618Z,15.08
2019-05-13T13:38:42.686Z,15.22
2019-05-13T13:41:21.935Z,15.22
2019-05-13T13:43:44.831Z,15.07
2019-05-13T13:46:37.241Z,15.09
2019-05-13T13:48:54.710Z,14.91
2019-05-13T13:51:26.585Z,14.52
2019-05-13T13:53:56.557Z,14.41
2019-05-13T13:56:25.758Z,14.70
2019-05-13T13:58:55.604Z,14.85
2019-05-13T14:01:27.574Z,14.78
2019-05-13T14:04:04.450Z,14.41
2019-05-13T14:09:07.701Z,14.26
2019-05-13T14:11:42.010Z,14.29
2019-05-13T14:14:12.822Z,14.66
2019-05-13T14:16:46.759Z,14.85
2019-05-13T14:19:17.403Z,14.84
2019-05-13T14:21:47.862Z,14.72
2019-05-13T14:24:17.730Z,14.74
2019-05-13T14:26:48.130Z,14.71
2019-05-13T14:29:21.123Z,14.87
2019-05-13T14:31:52.009Z,14.86
2019-05-13T14:34:22.512Z,14.87
2019-05-13T14:36:58.372Z,15.02
2019-05-13T14:39:28.096Z,15.04
2019-05-13T14:41:59.030Z,15.10
2019-05-13T14:44:29.554Z,15.06
2019-05-13T14:47:01.619Z,14.99
2019-05-13T14:49:31.870Z,14.99
2019-05-13T14:52:02.327Z,14.85
2019-05-13T14:54:33.843Z,15.08
2019-05-13T14:57:04.180Z,15.33
2019-05-13T14:59:35.801Z,15.16
2019-05-13T15:02:06.044Z,15.24
2019-05-13T15:04:37.691Z,15.03
2019-05-13T15:07:08.119Z,14.95
2019-05-13T15:09:39.063Z,14.82
2019-05-13T15:12:09.667Z,14.94
2019-05-13T15:14:42.743Z,14.98
2019-05-13T15:17:14.108Z,14.93
2019-05-13T15:19:44.371Z,14.98
2019-05-13T15:22:16.593Z,14.93
2019-05-13T15:24:46.836Z,14.96
2019-05-13T15:27:16.622Z,14.91
2019-05-13T15:29:48.480Z,14.87
2019-05-13T15:32:18.264Z,14.95
2019-05-13T15:34:48.477Z,14.88
2019-05-13T15:37:21.472Z,14.86
2019-05-13T15:39:52.051Z,14.84
2019-05-13T15:42:24.854Z,14.94
2019-05-13T15:44:54.926Z,14.89
2019-05-13T15:47:26.924Z,14.82
2019-05-13T15:49:56.846Z,14.83
2019-05-13T15:52:26.691Z,14.90
2019-05-13T15:55:01.361Z,14.78
2019-05-13T15:57:31.918Z,14.61
2019-05-13T16:00:03.614Z,14.76
2019-05-13T16:02:34.364Z,14.80
2019-05-13T16:05:08.851Z,14.76
2019-05-13T16:07:38.811Z,14.83
2019-05-13T16:10:12.901Z,15.03
2019-05-13T16:12:43.305Z,14.59
2019-05-13T16:15:17.863Z,14.44
2019-05-13T16:17:48.425Z,14.29
2019-05-13T16:20:18.479Z,14.36
2019-05-13T16:22:49.065Z,14.55
2019-05-13T16:25:19.791Z,14.36
2019-05-13T16:27:52.044Z,14.23
2019-05-13T16:30:23.374Z,14.22
2019-05-13T16:32:53.417Z,14.20
2019-05-13T16:35:24.534Z,14.25
2019-05-13T16:37:55.856Z,14.15
2019-05-13T16:40:26.135Z,14.03
2019-05-13T16:42:56.238Z,14.00
2019-05-13T16:45:31.564Z,14.14
2019-05-13T16:48:04.152Z,13.99
2019-05-13T16:50:34.930Z,13.89
2019-05-13T16:53:05.114Z,13.95
2019-05-13T16:55:35.219Z,13.97
2019-05-13T16:58:12.394Z,13.86
2019-05-13T17:00:42.538Z,13.92
2019-05-13T17:03:12.347Z,13.93
2019-05-13T17:05:43.420Z,13.96
2019-05-13T17:08:13.306Z,14.05
2019-05-13T17:10:46.382Z,14.08
2019-05-13T17:13:18.121Z,14.20
2019-05-13T17:15:52.092Z,14.15
2019-05-13T17:18:22.071Z,14.14
2019-05-13T17:20:53.131Z,14.18
2019-05-13T17:23:23.064Z,14.17
2019-05-13T17:25:53.509Z,14.24
2019-05-13T17:28:25.077Z,14.20
2019-05-13T17:30:55.494Z,14.25
2019-05-13T17:33:36.297Z,14.15
2019-05-13T17:36:06.375Z,13.89
2019-05-13T17:38:37.294Z,13.70
2019-05-13T17:41:07.245Z,13.64
2019-05-13T17:43:37.046Z,13.54
2019-05-13T17:46:07.577Z,13.56
2019-05-13T17:48:41.689Z,13.46
2019-05-13T17:51:16.600Z,13.40
2019-05-13T17:53:46.677Z,13.31
2019-05-13T17:56:17.250Z,13.29
2019-05-13T17:58:47.675Z,13.19
2019-05-13T18:01:21.402Z,13.17
2019-05-13T18:03:55.048Z,13.27
2019-05-13T18:06:27.547Z,13.29
2019-05-13T18:08:58.057Z,13.28
2019-05-13T18:11:29.357Z,13.36
2019-05-13T18:14:01.248Z,13.33
2019-05-13T18:16:33.574Z,13.21
2019-05-13T18:19:03.889Z,13.28
2019-05-13T18:21:34.710Z,13.22
2019-05-13T18:24:05.328Z,13.23
2019-05-13T18:26:48.745Z,13.27
2019-05-13T18:29:19.029Z,13.31
2019-05-13T18:31:52.554Z,13.18
2019-05-13T18:34:22.649Z,13.20
2019-05-13T18:36:58.518Z,12.92
2019-05-13T18:39:28.406Z,12.72
2019-05-13T18:41:58.874Z,12.74
2019-05-13T18:44:31.468Z,12.64
2019-05-13T18:47:01.683Z,12.67
2019-05-13T18:49:32.047Z,12.60
2019-05-13T18:52:02.659Z,12.55
2019-05-13T18:54:32.769Z,12.46
2019-05-13T18:57:03.503Z,12.51
2019-05-13T18:59:33.472Z,12.39
2019-05-13T19:02:03.439Z,12.41
2019-05-13T19:04:34.016Z,12.38
2019-05-13T19:07:03.759Z,12.36
2019-05-13T19:09:34.682Z,12.42
2019-05-13T19:12:04.764Z,12.39
2019-05-13T19:14:37.343Z,12.34
2019-05-13T19:17:08.309Z,12.30
2019-05-13T19:19:43.198Z,12.31
2019-05-13T19:22:15.037Z,12.26
2019-05-13T19:24:46.202Z,12.25
2019-05-13T19:27:16.423Z,12.18
2019-05-13T19:29:46.244Z,12.03
2019-05-13T19:32:16.927Z,12.01
2019-05-13T19:34:47.112Z,12.06
2019-05-13T19:37:17.668Z,11.98
2019-05-13T19:39:49.312Z,11.93
2019-05-13T19:42:22.295Z,11.90
2019-05-13T19:44:52.288Z,11.38
2019-05-13T19:47:22.735Z,11.84
2019-05-13T19:49:56.055Z,11.85
2019-05-13T19:52:35.056Z,11.83
2019-05-13T19:55:05.776Z,11.80
2019-05-13T19:57:37.384Z,11.77
2019-05-13T20:00:10.322Z,11.75
2019-05-13T20:02:42.198Z,11.63
2019-05-13T20:05:12.426Z,11.60
2019-05-13T20:07:42.843Z,11.59
2019-05-13T20:10:13.159Z,11.57
2019-05-13T20:12:44.291Z,11.46
2019-05-13T20:15:15.666Z,11.38
2019-05-13T20:17:45.722Z,11.34
2019-05-13T20:20:21.263Z,11.37
2019-05-13T20:22:51.801Z,11.35
2019-05-13T20:25:23.607Z,11.38
2019-05-13T20:27:53.602Z,11.33
2019-05-13T20:30:23.933Z,11.32
2019-05-13T20:32:54.059Z,11.30
2019-05-13T20:35:26.598Z,11.31
2019-05-13T20:37:57.674Z,11.26
2019-05-13T20:40:27.666Z,11.23
2019-05-13T20:42:58.365Z,11.24
2019-05-13T20:45:31.208Z,11.24
2019-05-13T20:48:03.214Z,11.20
2019-05-13T20:50:33.854Z,11.19
2019-05-13T20:53:04.288Z,11.21
2019-05-13T20:55:35.885Z,11.14
2019-05-13T20:58:06.021Z,11.07
2019-05-13T21:00:36.328Z,10.98
2019-05-13T21:03:07.375Z,10.90
2019-05-13T21:05:41.601Z,10.88
2019-05-13T21:08:11.961Z,10.92
2019-05-13T21:10:42.347Z,10.94
2019-05-13T21:13:14.417Z,10.85
2019-05-13T21:15:44.602Z,10.85
2019-05-13T21:18:18.431Z,10.85
2019-05-13T21:20:48.017Z,10.81
2019-05-13T21:23:17.938Z,10.75
2019-05-13T21:25:50.944Z,10.75
2019-05-13T21:28:22.040Z,10.68
2019-05-13T21:30:54.099Z,10.64
2019-05-13T21:33:24.853Z,10.62
2019-05-13T21:36:01.734Z,10.63
2019-05-13T21:38:32.610Z,10.61
2019-05-13T21:41:02.987Z,10.63
2019-05-13T21:43:33.409Z,10.63
2019-05-13T21:46:03.150Z,10.58
2019-05-13T21:48:34.196Z,10.56
2019-05-13T21:51:05.917Z,10.58
2019-05-13T21:53:36.621Z,10.54
2019-05-13T21:56:06.777Z,10.45
2019-05-13T21:58:36.983Z,10.29
2019-05-13T22:01:06.938Z,10.17
2019-05-13T22:03:45.294Z,10.02
2019-05-13T22:06:15.449Z,9.88
2019-05-13T22:08:46.616Z,9.81
2019-05-13T22:11:17.116Z,9.75
2019-05-13T22:13:47.657Z,9.70
2019-05-13T22:16:18.077Z,9.59
2019-05-13T22:18:47.967Z,9.54
2019-05-13T22:21:18.634Z,9.45
2019-05-13T22:23:48.954Z,9.35
2019-05-13T22:26:18.898Z,9.33
2019-05-13T22:28:51.112Z,9.33
2019-05-13T22:31:22.246Z,9.34
2019-05-13T22:33:53.586Z,8.98
2019-05-13T22:36:25.059Z,9.49
2019-05-13T22:38:55.515Z,9.56
2019-05-13T22:41:25.881Z,9.54
2019-05-13T22:43:58.905Z,9.48
2019-05-13T22:46:32.185Z,9.46
2019-05-13T22:49:03.766Z,9.44
2019-05-13T22:51:34.161Z,9.46
2019-05-13T22:54:05.206Z,9.45
2019-05-13T22:56:37.390Z,9.46
2019-05-13T22:59:09.350Z,9.24
2019-05-13T23:01:41.829Z,9.24
2019-05-13T23:04:15.294Z,9.02
2019-05-13T23:06:46.450Z,8.94
2019-05-13T23:09:16.367Z,8.87
2019-05-13T23:11:46.566Z,9.01
2019-05-13T23:14:16.423Z,8.96
2019-05-13T23:16:48.449Z,8.84
2019-05-13T23:19:21.525Z,8.83
2019-05-13T23:21:51.939Z,8.83
2019-05-13T23:24:24.355Z,8.90
2019-05-13T23:26:55.929Z,8.94
2019-05-13T23:29:26.508Z,8.94
2019-05-13T23:32:01.300Z,8.82
2019-05-13T23:34:32.242Z,8.75
2019-05-13T23:37:02.217Z,8.75
2019-05-13T23:39:33.541Z,8.73
2019-05-13T23:42:04.390Z,8.76
2019-05-13T23:44:35.536Z,8.74
2019-05-13T23:47:05.851Z,8.80
2019-05-13T23:49:38.397Z,8.73
2019-05-13T23:52:11.669Z,8.56
2019-05-13T23:54:43.052Z,8.41
2019-05-13T23:57:13.520Z,8.28
2019-05-13T23:59:43.734Z,8.39
